sensor_id;sensor_type;location;lat;lon;timestamp;pressure;altitude;pressure_sealevel;temperature;humidity
18988;BME280;5494;51.796;10.952;2023-01-20T00:01:42;98303.84;;;-0.70;100.00
18988;BME280;5494;51.796;10.952;2023-01-20T00:04:13;98310.91;;;-0.88;100.00
18988;BME280;5494;51.796;10.952;2023-01-20T00:06:41;98310.19;;;-0.96;100.00
18988;BME280;5494;51.796;10.952;2023-01-20T00:09:14;98317.06;;;-1.01;100.00
18988;BME280;5494;51.796;10.952;2023-01-20T00:11:42;98326.50;;;-1.04;100.00
18988;BME280;5494;51.796;10.952;2023-01-20T00:14:11;98310.16;;;-0.94;100.00
18988;BME280;5494;51.796;10.952;2023-01-20T00:16:39;98316.69;;;-0.76;100.00
18988;BME280;5494;51.796;10.952;2023-01-20T00:19:11;98320.06;;;-0.76;100.00
18988;BME280;5494;51.796;10.952;2023-01-20T00:21:39;98313.19;;;-0.69;100.00
18988;BME280;5494;51.796;10.952;2023-01-20T00:24:07;98321.56;;;-0.63;100.00
18988;BME280;5494;51.796;10.952;2023-01-20T00:26:35;98313.00;;;-0.62;100.00
18988;BME280;5494;51.796;10.952;2023-01-20T00:29:03;98326.66;;;-0.63;100.00
18988;BME280;5494;51.796;10.952;2023-01-20T00:31:31;98332.69;;;-0.67;100.00
18988;BME280;5494;51.796;10.952;2023-01-20T00:34:01;98321.63;;;-0.67;100.00
18988;BME280;5494;51.796;10.952;2023-01-20T00:36:31;98328.44;;;-0.68;100.00
18988;BME280;5494;51.796;10.952;2023-01-20T00:39:00;98329.34;;;-0.70;100.00
18988;BME280;5494;51.796;10.952;2023-01-20T00:41:29;98330.22;;;-0.71;100.00
18988;BME280;5494;51.796;10.952;2023-01-20T00:43:57;98341.31;;;-0.75;100.00
18988;BME280;5494;51.796;10.952;2023-01-20T00:46:25;98344.88;;;-0.84;100.00
18988;BME280;5494;51.796;10.952;2023-01-20T00:48:53;98355.13;;;-0.89;100.00
18988;BME280;5494;51.796;10.952;2023-01-20T00:51:21;98359.56;;;-1.00;100.00
18988;BME280;5494;51.796;10.952;2023-01-20T00:53:51;98363.81;;;-1.02;100.00
18988;BME280;5494;51.796;10.952;2023-01-20T00:56:19;98360.44;;;-1.02;100.00
18988;BME280;5494;51.796;10.952;2023-01-20T00:58:47;98361.34;;;-1.06;100.00
18988;BME280;5494;51.796;10.952;2023-01-20T01:01:15;98367.38;;;-1.12;100.00
18988;BME280;5494;51.796;10.952;2023-01-20T01:03:43;98368.34;;;-1.19;100.00
18988;BME280;5494;51.796;10.952;2023-01-20T01:06:14;98376.09;;;-1.27;100.00
18988;BME280;5494;51.796;10.952;2023-01-20T01:08:43;98372.69;;;-1.26;100.00
18988;BME280;5494;51.796;10.952;2023-01-20T01:11:13;98380.38;;;-1.30;100.00
18988;BME280;5494;51.796;10.952;2023-01-20T01:13:41;98388.09;;;-1.36;100.00
18988;BME280;5494;51.796;10.952;2023-01-20T01:16:11;98381.38;;;-1.42;100.00
18988;BME280;5494;51.796;10.952;2023-01-20T01:18:40;98386.38;;;-1.34;100.00
18988;BME280;5494;51.796;10.952;2023-01-20T01:21:11;98391.31;;;-1.21;100.00
18988;BME280;5494;51.796;10.952;2023-01-20T01:23:40;98395.47;;;-1.16;100.00
18988;BME280;5494;51.796;10.952;2023-01-20T01:26:08;98392.66;;;-0.97;100.00
18988;BME280;5494;51.796;10.952;2023-01-20T01:28:38;98398.38;;;-0.80;100.00
18988;BME280;5494;51.796;10.952;2023-01-20T01:31:07;98393.28;;;-0.83;100.00
18988;BME280;5494;51.796;10.952;2023-01-20T01:33:35;98398.41;;;-0.83;100.00
18988;BME280;5494;51.796;10.952;2023-01-20T01:36:05;98395.09;;;-0.89;100.00
18988;BME280;5494;51.796;10.952;2023-01-20T01:38:34;98394.97;;;-0.80;100.00
18988;BME280;5494;51.796;10.952;2023-01-20T01:41:02;98394.19;;;-0.84;100.00
18988;BME280;5494;51.796;10.952;2023-01-20T01:43:32;98393.47;;;-0.95;100.00
18988;BME280;5494;51.796;10.952;2023-01-20T01:46:03;98402.16;;;-1.06;100.00
18988;BME280;5494;51.796;10.952;2023-01-20T01:48:37;98397.03;;;-1.05;100.00
18988;BME280;5494;51.796;10.952;2023-01-20T01:51:10;98394.53;;;-1.08;100.00
18988;BME280;5494;51.796;10.952;2023-01-20T01:53:43;98402.09;;;-1.03;100.00
18988;BME280;5494;51.796;10.952;2023-01-20T01:56:13;98399.59;;;-1.05;100.00
18988;BME280;5494;51.796;10.952;2023-01-20T01:58:47;98402.09;;;-1.02;100.00
18988;BME280;5494;51.796;10.952;2023-01-20T02:01:17;98402.94;;;-1.01;100.00
18988;BME280;5494;51.796;10.952;2023-01-20T02:03:53;98412.38;;;-1.08;100.00
18988;BME280;5494;51.796;10.952;2023-01-20T02:06:26;98415.00;;;-1.12;100.00
18988;BME280;5494;51.796;10.952;2023-01-20T02:08:57;98414.19;;;-1.17;100.00
18988;BME280;5494;51.796;10.952;2023-01-20T02:11:26;98410.88;;;-1.24;100.00
18988;BME280;5494;51.796;10.952;2023-01-20T02:13:55;98418.59;;;-1.27;100.00
18988;BME280;5494;51.796;10.952;2023-01-20T02:16:37;98419.44;;;-1.28;100.00
18988;BME280;5494;51.796;10.952;2023-01-20T02:19:36;98415.19;;;-1.29;100.00
18988;BME280;5494;51.796;10.952;2023-01-20T02:22:25;98425.44;;;-1.32;100.00
18988;BME280;5494;51.796;10.952;2023-01-20T02:25:37;98434.03;;;-1.39;100.00
18988;BME280;5494;51.796;10.952;2023-01-20T02:28:55;98436.50;;;-1.35;100.00
18988;BME280;5494;51.796;10.952;2023-01-20T02:32:03;98429.72;;;-1.36;100.00
18988;BME280;5494;51.796;10.952;2023-01-20T02:34:41;98429.63;;;-1.28;100.00
18988;BME280;5494;51.796;10.952;2023-01-20T02:37:13;98429.59;;;-1.25;100.00
18988;BME280;5494;51.796;10.952;2023-01-20T02:39:52;98426.97;;;-1.19;100.00
18988;BME280;5494;51.796;10.952;2023-01-20T02:42:35;98433.78;;;-1.18;100.00
18988;BME280;5494;51.796;10.952;2023-01-20T02:45:14;98425.97;;;-1.09;100.00
18988;BME280;5494;51.796;10.952;2023-01-20T02:47:55;98443.75;;;-1.03;100.00
18988;BME280;5494;51.796;10.952;2023-01-20T02:50:37;98435.97;;;-0.92;100.00
18988;BME280;5494;51.796;10.952;2023-01-20T02:53:09;98435.22;;;-1.00;100.00
18988;BME280;5494;51.796;10.952;2023-01-20T02:55:43;98441.94;;;-0.95;100.00
18988;BME280;5494;51.796;10.952;2023-01-20T02:58:19;98442.00;;;-0.98;100.00
18988;BME280;5494;51.796;10.952;2023-01-20T03:00:57;98442.78;;;-0.96;100.00
18988;BME280;5494;51.796;10.952;2023-01-20T03:03:34;98438.44;;;-0.86;100.00
18988;BME280;5494;51.796;10.952;2023-01-20T03:06:09;98439.28;;;-0.86;100.00
18988;BME280;5494;51.796;10.952;2023-01-20T03:08:40;98446.94;;;-0.87;100.00
18988;BME280;5494;51.796;10.952;2023-01-20T03:11:08;98442.72;;;-0.90;100.00
18988;BME280;5494;51.796;10.952;2023-01-20T03:13:43;98447.88;;;-0.93;100.00
18988;BME280;5494;51.796;10.952;2023-01-20T03:16:17;98456.38;;;-0.94;100.00
18988;BME280;5494;51.796;10.952;2023-01-20T03:18:47;98455.59;;;-0.99;100.00
18988;BME280;5494;51.796;10.952;2023-01-20T03:21:16;98451.41;;;-1.03;100.00
18988;BME280;5494;51.796;10.952;2023-01-20T03:23:50;98448.88;;;-1.04;100.00
18988;BME280;5494;51.796;10.952;2023-01-20T03:26:21;98459.09;;;-1.06;100.00
18988;BME280;5494;51.796;10.952;2023-01-20T03:28:50;98458.31;;;-1.11;100.00
18988;BME280;5494;51.796;10.952;2023-01-20T03:31:23;98460.91;;;-1.14;100.00
18988;BME280;5494;51.796;10.952;2023-01-20T03:33:57;98467.72;;;-1.17;100.00
18988;BME280;5494;51.796;10.952;2023-01-20T03:36:27;98472.00;;;-1.18;100.00
18988;BME280;5494;51.796;10.952;2023-01-20T03:38:58;98472.81;;;-1.17;100.00
18988;BME280;5494;51.796;10.952;2023-01-20T03:41:36;98467.78;;;-1.19;100.00
18988;BME280;5494;51.796;10.952;2023-01-20T03:44:14;98467.78;;;-1.22;100.00
18988;BME280;5494;51.796;10.952;2023-01-20T03:46:51;98483.06;;;-1.19;100.00
18988;BME280;5494;51.796;10.952;2023-01-20T03:49:28;98476.28;;;-1.22;100.00
18988;BME280;5494;51.796;10.952;2023-01-20T03:52:05;98480.56;;;-1.24;100.00
18988;BME280;5494;51.796;10.952;2023-01-20T03:54:44;98485.69;;;-1.27;100.00
18988;BME280;5494;51.796;10.952;2023-01-20T03:57:20;98487.41;;;-1.29;100.00
18988;BME280;5494;51.796;10.952;2023-01-20T03:59:50;98490.81;;;-1.28;100.00
18988;BME280;5494;51.796;10.952;2023-01-20T04:02:20;98489.91;;;-1.24;100.00
18988;BME280;5494;51.796;10.952;2023-01-20T04:04:52;98501.03;;;-1.30;100.00
18988;BME280;5494;51.796;10.952;2023-01-20T04:07:23;98494.28;;;-1.32;100.00
18988;BME280;5494;51.796;10.952;2023-01-20T04:09:57;98506.94;;;-1.28;100.00
18988;BME280;5494;51.796;10.952;2023-01-20T04:12:27;98502.72;;;-1.30;100.00
18988;BME280;5494;51.796;10.952;2023-01-20T04:14:55;98511.28;;;-1.34;100.00
18988;BME280;5494;51.796;10.952;2023-01-20T04:17:26;98519.78;;;-1.38;100.00
18988;BME280;5494;51.796;10.952;2023-01-20T04:20:04;98509.59;;;-1.37;100.00
18988;BME280;5494;51.796;10.952;2023-01-20T04:22:38;98524.06;;;-1.39;100.00
18988;BME280;5494;51.796;10.952;2023-01-20T04:25:16;98527.44;;;-1.37;100.00
18988;BME280;5494;51.796;10.952;2023-01-20T04:27:47;98516.38;;;-1.34;100.00
18988;BME280;5494;51.796;10.952;2023-01-20T04:30:15;98523.09;;;-1.27;100.00
18988;BME280;5494;51.796;10.952;2023-01-20T04:32:44;98526.53;;;-1.31;100.00
18988;BME280;5494;51.796;10.952;2023-01-20T04:35:16;98535.06;;;-1.35;100.00
18988;BME280;5494;51.796;10.952;2023-01-20T04:37:44;98537.56;;;-1.31;100.00
18988;BME280;5494;51.796;10.952;2023-01-20T04:40:12;98543.56;;;-1.33;100.00
18988;BME280;5494;51.796;10.952;2023-01-20T04:42:40;98545.28;;;-1.38;100.00
18988;BME280;5494;51.796;10.952;2023-01-20T04:45:13;98550.28;;;-1.29;100.00
18988;BME280;5494;51.796;10.952;2023-01-20T04:47:42;98553.69;;;-1.27;100.00
18988;BME280;5494;51.796;10.952;2023-01-20T04:50:13;98559.75;;;-1.39;100.00
18988;BME280;5494;51.796;10.952;2023-01-20T04:52:42;98563.25;;;-1.49;100.00
18988;BME280;5494;51.796;10.952;2023-01-20T04:55:11;98569.19;;;-1.51;100.00
18988;BME280;5494;51.796;10.952;2023-01-20T04:57:39;98566.66;;;-1.51;100.00
18988;BME280;5494;51.796;10.952;2023-01-20T05:00:10;98565.88;;;-1.56;100.00
18988;BME280;5494;51.796;10.952;2023-01-20T05:02:40;98570.16;;;-1.63;100.00
18988;BME280;5494;51.796;10.952;2023-01-20T05:05:12;98569.28;;;-1.59;100.00
18988;BME280;5494;51.796;10.952;2023-01-20T05:07:41;98565.91;;;-1.63;100.00
18988;BME280;5494;51.796;10.952;2023-01-20T05:10:10;98568.41;;;-1.53;100.00
18988;BME280;5494;51.796;10.952;2023-01-20T05:12:39;98574.41;;;-1.65;100.00
18988;BME280;5494;51.796;10.952;2023-01-20T05:15:08;98579.63;;;-1.76;100.00
18988;BME280;5494;51.796;10.952;2023-01-20T05:17:36;98579.63;;;-1.76;100.00
18988;BME280;5494;51.796;10.952;2023-01-20T05:20:04;98584.72;;;-1.79;100.00
18988;BME280;5494;51.796;10.952;2023-01-20T05:22:34;98589.81;;;-1.77;100.00
18988;BME280;5494;51.796;10.952;2023-01-20T05:25:02;98591.50;;;-1.76;100.00
18988;BME280;5494;51.796;10.952;2023-01-20T05:27:33;98588.09;;;-1.74;100.00
18988;BME280;5494;51.796;10.952;2023-01-20T05:30:01;98594.00;;;-1.69;100.00
18988;BME280;5494;51.796;10.952;2023-01-20T05:32:29;98594.84;;;-1.71;100.00
18988;BME280;5494;51.796;10.952;2023-01-20T05:34:58;98600.72;;;-1.60;100.00
18988;BME280;5494;51.796;10.952;2023-01-20T05:37:25;98602.41;;;-1.59;100.00
18988;BME280;5494;51.796;10.952;2023-01-20T05:39:55;98593.94;;;-1.63;100.00
18988;BME280;5494;51.796;10.952;2023-01-20T05:42:23;98601.53;;;-1.56;100.00
18988;BME280;5494;51.796;10.952;2023-01-20T05:44:51;98604.19;;;-1.69;100.00
18988;BME280;5494;51.796;10.952;2023-01-20T05:47:19;98601.66;;;-1.69;100.00
18988;BME280;5494;51.796;10.952;2023-01-20T05:49:47;98599.94;;;-1.68;100.00
18988;BME280;5494;51.796;10.952;2023-01-20T05:52:15;98601.59;;;-1.66;100.00
18988;BME280;5494;51.796;10.952;2023-01-20T05:54:43;98608.47;;;-1.74;100.00
18988;BME280;5494;51.796;10.952;2023-01-20T05:57:12;98607.69;;;-1.80;100.00
18988;BME280;5494;51.796;10.952;2023-01-20T05:59:44;98616.22;;;-1.87;100.00
18988;BME280;5494;51.796;10.952;2023-01-20T06:02:13;98614.53;;;-1.88;100.00
18988;BME280;5494;51.796;10.952;2023-01-20T06:04:44;98620.38;;;-1.79;100.00
18988;BME280;5494;51.796;10.952;2023-01-20T06:07:13;98627.22;;;-1.81;100.00
18988;BME280;5494;51.796;10.952;2023-01-20T06:09:41;98627.13;;;-1.72;100.00
18988;BME280;5494;51.796;10.952;2023-01-20T06:12:09;98629.78;;;-1.82;100.00
18988;BME280;5494;51.796;10.952;2023-01-20T06:14:39;98632.34;;;-1.87;100.00
18988;BME280;5494;51.796;10.952;2023-01-20T06:17:06;98633.25;;;-1.95;100.00
18988;BME280;5494;51.796;10.952;2023-01-20T06:19:34;98641.84;;;-2.09;100.00
18988;BME280;5494;51.796;10.952;2023-01-20T06:22:03;98648.66;;;-2.18;100.00
18988;BME280;5494;51.796;10.952;2023-01-20T06:24:31;98652.06;;;-2.16;100.00
18988;BME280;5494;51.796;10.952;2023-01-20T06:26:59;98650.31;;;-2.11;100.00
18988;BME280;5494;51.796;10.952;2023-01-20T06:29:27;98654.56;;;-2.13;100.00
18988;BME280;5494;51.796;10.952;2023-01-20T06:31:57;98663.13;;;-2.22;100.00
18988;BME280;5494;51.796;10.952;2023-01-20T06:34:25;98656.34;;;-2.27;100.00
18988;BME280;5494;51.796;10.952;2023-01-20T06:36:53;98666.47;;;-2.17;100.00
18988;BME280;5494;51.796;10.952;2023-01-20T06:39:21;98668.19;;;-2.20;100.00
18988;BME280;5494;51.796;10.952;2023-01-20T06:41:49;98667.34;;;-2.22;100.00
18988;BME280;5494;51.796;10.952;2023-01-20T06:44:17;98675.88;;;-2.31;100.00
18988;BME280;5494;51.796;10.952;2023-01-20T06:46:45;98677.56;;;-2.33;100.00
18988;BME280;5494;51.796;10.952;2023-01-20T06:49:15;98685.25;;;-2.38;100.00
18988;BME280;5494;51.796;10.952;2023-01-20T06:51:43;98687.81;;;-2.42;100.00
18988;BME280;5494;51.796;10.952;2023-01-20T06:54:14;98693.75;;;-2.48;100.00
18988;BME280;5494;51.796;10.952;2023-01-20T06:56:42;98698.00;;;-2.53;100.00
18988;BME280;5494;51.796;10.952;2023-01-20T06:59:10;98700.56;;;-2.51;100.00
18988;BME280;5494;51.796;10.952;2023-01-20T07:01:39;98705.66;;;-2.50;100.00
18988;BME280;5494;51.796;10.952;2023-01-20T07:04:12;98714.97;;;-2.52;100.00
18988;BME280;5494;51.796;10.952;2023-01-20T07:06:41;98711.59;;;-2.57;100.00
18988;BME280;5494;51.796;10.952;2023-01-20T07:09:11;98709.91;;;-2.56;100.00
18988;BME280;5494;51.796;10.952;2023-01-20T07:11:40;98714.13;;;-2.54;100.00
18988;BME280;5494;51.796;10.952;2023-01-20T07:14:08;98724.28;;;-2.54;100.00
18988;BME280;5494;51.796;10.952;2023-01-20T07:16:37;98727.66;;;-2.46;100.00
18988;BME280;5494;51.796;10.952;2023-01-20T07:19:05;98725.09;;;-2.40;100.00
18988;BME280;5494;51.796;10.952;2023-01-20T07:21:33;98727.66;;;-2.40;100.00
18988;BME280;5494;51.796;10.952;2023-01-20T07:24:03;98732.72;;;-2.30;100.00
18988;BME280;5494;51.796;10.952;2023-01-20T07:26:31;98735.22;;;-2.26;100.00
18988;BME280;5494;51.796;10.952;2023-01-20T07:29:00;98736.09;;;-2.31;100.00
18988;BME280;5494;51.796;10.952;2023-01-20T07:31:28;98736.09;;;-2.28;100.00
18988;BME280;5494;51.796;10.952;2023-01-20T07:33:57;98737.78;;;-2.26;100.00
18988;BME280;5494;51.796;10.952;2023-01-20T07:36:26;98739.41;;;-2.14;100.00
18988;BME280;5494;51.796;10.952;2023-01-20T07:38:54;98741.03;;;-1.92;100.00
18988;BME280;5494;51.796;10.952;2023-01-20T07:41:23;98729.94;;;-1.83;100.00
18988;BME280;5494;51.796;10.952;2023-01-20T07:43:52;98742.59;;;-1.70;100.00
18988;BME280;5494;51.796;10.952;2023-01-20T07:46:23;98738.28;;;-1.59;100.00
18988;BME280;5494;51.796;10.952;2023-01-20T07:48:51;98745.88;;;-1.46;100.00
18988;BME280;5494;51.796;10.952;2023-01-20T07:51:19;98744.13;;;-1.44;100.00
18988;BME280;5494;51.796;10.952;2023-01-20T07:53:49;98744.94;;;-1.33;100.00
18988;BME280;5494;51.796;10.952;2023-01-20T07:56:20;98740.53;;;-1.14;100.00
18988;BME280;5494;51.796;10.952;2023-01-20T07:58:50;98748.84;;;-0.91;100.00
18988;BME280;5494;51.796;10.952;2023-01-20T08:01:22;98759.66;;;-0.68;100.00
18988;BME280;5494;51.796;10.952;2023-01-20T08:03:51;98756.81;;;-0.39;100.00
18988;BME280;5494;51.796;10.952;2023-01-20T08:06:22;98757.44;;;-0.16;99.95
18988;BME280;5494;51.796;10.952;2023-01-20T08:08:50;98766.47;;;0.10;98.50
18988;BME280;5494;51.796;10.952;2023-01-20T08:11:20;98772.91;;;0.39;96.97
18988;BME280;5494;51.796;10.952;2023-01-20T08:13:50;98780.97;;;0.72;95.83
18988;BME280;5494;51.796;10.952;2023-01-20T08:16:18;98779.44;;;1.17;94.47
18988;BME280;5494;51.796;10.952;2023-01-20T08:18:46;98775.94;;;1.69;92.50
18988;BME280;5494;51.796;10.952;2023-01-20T08:21:21;98786.50;;;1.98;88.62
18988;BME280;5494;51.796;10.952;2023-01-20T08:23:49;98778.25;;;2.25;83.67
18988;BME280;5494;51.796;10.952;2023-01-20T08:26:17;98787.13;;;2.49;80.89
18988;BME280;5494;51.796;10.952;2023-01-20T08:28:46;98794.28;;;2.75;81.15
18988;BME280;5494;51.796;10.952;2023-01-20T08:31:19;98789.78;;;3.20;79.32
18988;BME280;5494;51.796;10.952;2023-01-20T08:33:51;98788.84;;;3.58;75.65
18988;BME280;5494;51.796;10.952;2023-01-20T08:36:23;98789.88;;;3.83;73.57
18988;BME280;5494;51.796;10.952;2023-01-20T08:38:51;98796.88;;;4.09;72.69
18988;BME280;5494;51.796;10.952;2023-01-20T08:41:23;98800.88;;;4.21;70.96
18988;BME280;5494;51.796;10.952;2023-01-20T08:43:53;98800.63;;;4.58;70.04
18988;BME280;5494;51.796;10.952;2023-01-20T08:46:22;98802.66;;;4.48;69.51
18988;BME280;5494;51.796;10.952;2023-01-20T08:48:51;98806.22;;;4.43;70.44
18988;BME280;5494;51.796;10.952;2023-01-20T08:51:23;98802.94;;;4.67;69.18
18988;BME280;5494;51.796;10.952;2023-01-20T08:53:51;98808.56;;;4.80;68.21
18988;BME280;5494;51.796;10.952;2023-01-20T08:56:20;98801.94;;;4.99;68.08
18988;BME280;5494;51.796;10.952;2023-01-20T08:58:49;98808.75;;;5.54;64.51
18988;BME280;5494;51.796;10.952;2023-01-20T09:01:21;98808.72;;;5.55;63.63
18988;BME280;5494;51.796;10.952;2023-01-20T09:03:51;98806.75;;;5.88;62.90
18988;BME280;5494;51.796;10.952;2023-01-20T09:06:39;98808.25;;;6.19;61.70
18988;BME280;5494;51.796;10.952;2023-01-20T09:09:08;98812.13;;;6.30;61.31
18988;BME280;5494;51.796;10.952;2023-01-20T09:11:39;98810.78;;;6.44;59.24
18988;BME280;5494;51.796;10.952;2023-01-20T09:14:10;98805.97;;;6.58;59.68
18988;BME280;5494;51.796;10.952;2023-01-20T09:16:38;98805.28;;;6.76;57.26
18988;BME280;5494;51.796;10.952;2023-01-20T09:19:07;98818.75;;;6.84;57.26
18988;BME280;5494;51.796;10.952;2023-01-20T09:21:36;98818.66;;;6.86;55.91
18988;BME280;5494;51.796;10.952;2023-01-20T09:24:05;98817.69;;;7.11;55.34
18988;BME280;5494;51.796;10.952;2023-01-20T09:26:33;98825.72;;;6.82;54.36
18988;BME280;5494;51.796;10.952;2023-01-20T09:29:07;98828.53;;;6.76;56.36
18988;BME280;5494;51.796;10.952;2023-01-20T09:31:38;98833.41;;;6.60;56.59
18988;BME280;5494;51.796;10.952;2023-01-20T09:34:13;98841.06;;;6.63;56.36
18988;BME280;5494;51.796;10.952;2023-01-20T09:36:49;98843.84;;;6.57;56.78
18988;BME280;5494;51.796;10.952;2023-01-20T09:39:18;98845.53;;;6.58;55.55
18988;BME280;5494;51.796;10.952;2023-01-20T09:42:24;98845.47;;;6.83;55.85
18988;BME280;5494;51.796;10.952;2023-01-20T09:45:23;98850.25;;;7.16;55.27
18988;BME280;5494;51.796;10.952;2023-01-20T09:48:05;98854.38;;;7.63;54.32
18988;BME280;5494;51.796;10.952;2023-01-20T09:50:48;98850.06;;;7.84;52.63
18988;BME280;5494;51.796;10.952;2023-01-20T09:53:49;98852.69;;;8.03;52.20
18988;BME280;5494;51.796;10.952;2023-01-20T09:56:26;98857.47;;;7.71;51.90
18988;BME280;5494;51.796;10.952;2023-01-20T09:59:04;98861.34;;;7.61;53.17
18988;BME280;5494;51.796;10.952;2023-01-20T10:01:38;98858.91;;;7.36;52.91
18988;BME280;5494;51.796;10.952;2023-01-20T10:04:13;98872.38;;;7.44;53.55
18988;BME280;5494;51.796;10.952;2023-01-20T10:06:49;98869.19;;;7.38;52.76
18988;BME280;5494;51.796;10.952;2023-01-20T10:09:26;98873.88;;;7.50;52.70
18988;BME280;5494;51.796;10.952;2023-01-20T10:12:06;98874.97;;;7.86;51.62
18988;BME280;5494;51.796;10.952;2023-01-20T10:14:42;98876.41;;;7.51;52.42
18988;BME280;5494;51.796;10.952;2023-01-20T10:17:15;98881.06;;;6.98;52.20
18988;BME280;5494;51.796;10.952;2023-01-20T10:19:53;98885.06;;;6.60;54.13
18988;BME280;5494;51.796;10.952;2023-01-20T10:22:34;98887.19;;;6.72;55.52
18988;BME280;5494;51.796;10.952;2023-01-20T10:25:08;98893.88;;;6.78;55.63
18988;BME280;5494;51.796;10.952;2023-01-20T10:27:47;98891.53;;;6.95;54.21
18988;BME280;5494;51.796;10.952;2023-01-20T10:30:16;98893.78;;;6.81;55.25
18988;BME280;5494;51.796;10.952;2023-01-20T10:32:56;98891.47;;;6.97;55.72
18988;BME280;5494;51.796;10.952;2023-01-20T10:35:30;98898.31;;;6.98;53.40
18988;BME280;5494;51.796;10.952;2023-01-20T10:38:07;98906.44;;;6.64;55.52
18988;BME280;5494;51.796;10.952;2023-01-20T10:40:42;98910.34;;;6.76;55.46
18988;BME280;5494;51.796;10.952;2023-01-20T10:43:15;98904.00;;;7.29;54.59
18988;BME280;5494;51.796;10.952;2023-01-20T10:46:03;98906.47;;;7.10;54.66
18988;BME280;5494;51.796;10.952;2023-01-20T10:49:00;98913.53;;;7.27;54.67
18988;BME280;5494;51.796;10.952;2023-01-20T10:51:37;98906.78;;;7.25;52.83
18988;BME280;5494;51.796;10.952;2023-01-20T10:54:24;98913.06;;;7.18;53.99
18988;BME280;5494;51.796;10.952;2023-01-20T10:56:58;98904.44;;;7.19;54.15
18988;BME280;5494;51.796;10.952;2023-01-20T10:59:30;98915.25;;;7.28;53.45
18988;BME280;5494;51.796;10.952;2023-01-20T11:02:13;98916.09;;;7.50;53.64
18988;BME280;5494;51.796;10.952;2023-01-20T11:04:44;98916.31;;;7.88;52.09
18988;BME280;5494;51.796;10.952;2023-01-20T11:07:16;98912.72;;;7.70;52.98
18988;BME280;5494;51.796;10.952;2023-01-20T11:09:47;98917.69;;;7.75;51.37
18988;BME280;5494;51.796;10.952;2023-01-20T11:12:19;98924.34;;;7.60;52.33
18988;BME280;5494;51.796;10.952;2023-01-20T11:14:48;98923.88;;;7.27;52.16
18988;BME280;5494;51.796;10.952;2023-01-20T11:17:18;98935.44;;;7.19;52.88
18988;BME280;5494;51.796;10.952;2023-01-20T11:19:50;98921.78;;;7.15;53.51
18988;BME280;5494;51.796;10.952;2023-01-20T11:22:28;98922.09;;;7.29;53.22
18988;BME280;5494;51.796;10.952;2023-01-20T11:24:59;98926.09;;;7.38;52.33
18988;BME280;5494;51.796;10.952;2023-01-20T11:27:39;98932.34;;;7.09;52.42
18988;BME280;5494;51.796;10.952;2023-01-20T11:30:25;98929.88;;;6.83;53.92
18988;BME280;5494;51.796;10.952;2023-01-20T11:33:17;98935.91;;;6.83;54.73
18988;BME280;5494;51.796;10.952;2023-01-20T11:35:59;98938.84;;;6.72;53.83
18988;BME280;5494;51.796;10.952;2023-01-20T11:38:30;98942.81;;;6.58;54.06
18988;BME280;5494;51.796;10.952;2023-01-20T11:40:59;98937.16;;;6.48;53.64
18988;BME280;5494;51.796;10.952;2023-01-20T11:43:30;98947.78;;;6.14;56.47
18988;BME280;5494;51.796;10.952;2023-01-20T11:46:25;98954.53;;;5.92;55.68
18988;BME280;5494;51.796;10.952;2023-01-20T11:49:20;98946.03;;;5.88;55.66
18988;BME280;5494;51.796;10.952;2023-01-20T11:51:52;98957.75;;;5.71;58.21
18988;BME280;5494;51.796;10.952;2023-01-20T11:54:22;98954.44;;;5.67;58.13
18988;BME280;5494;51.796;10.952;2023-01-20T11:56:58;98957.06;;;5.66;58.63
18988;BME280;5494;51.796;10.952;2023-01-20T11:59:29;98954.84;;;4.98;55.32
18988;BME280;5494;51.796;10.952;2023-01-20T12:02:14;98954.13;;;4.62;59.89
18988;BME280;5494;51.796;10.952;2023-01-20T12:05:08;98958.09;;;4.73;59.88
18988;BME280;5494;51.796;10.952;2023-01-20T12:07:43;98956.19;;;4.80;61.98
18988;BME280;5494;51.796;10.952;2023-01-20T12:10:16;98958.88;;;4.75;60.70
18988;BME280;5494;51.796;10.952;2023-01-20T12:12:53;98952.72;;;4.81;60.98
18988;BME280;5494;51.796;10.952;2023-01-20T12:15:28;98960.13;;;4.62;60.15
18988;BME280;5494;51.796;10.952;2023-01-20T12:18:00;98963.94;;;4.48;62.17
18988;BME280;5494;51.796;10.952;2023-01-20T12:20:38;98960.56;;;4.46;62.60
18988;BME280;5494;51.796;10.952;2023-01-20T12:23:33;98964.72;;;4.50;61.71
18988;BME280;5494;51.796;10.952;2023-01-20T12:26:14;98962.75;;;4.28;62.84
18988;BME280;5494;51.796;10.952;2023-01-20T12:29:00;98967.44;;;4.11;64.09
18988;BME280;5494;51.796;10.952;2023-01-20T12:31:30;98971.97;;;3.66;63.15
18988;BME280;5494;51.796;10.952;2023-01-20T12:34:03;98978.63;;;3.38;67.24
18988;BME280;5494;51.796;10.952;2023-01-20T12:37:09;98979.22;;;3.09;64.95
18988;BME280;5494;51.796;10.952;2023-01-20T12:39:58;98975.91;;;3.04;67.10
18988;BME280;5494;51.796;10.952;2023-01-20T12:43:06;98975.94;;;3.02;66.59
18988;BME280;5494;51.796;10.952;2023-01-20T12:45:52;98974.91;;;3.11;68.79
18988;BME280;5494;51.796;10.952;2023-01-20T12:48:43;98981.22;;;3.36;67.39
18988;BME280;5494;51.796;10.952;2023-01-20T12:51:31;98986.31;;;3.38;66.96
18988;BME280;5494;51.796;10.952;2023-01-20T12:54:23;98989.94;;;3.28;67.44
18988;BME280;5494;51.796;10.952;2023-01-20T12:57:34;98983.50;;;3.08;66.19
18988;BME280;5494;51.796;10.952;2023-01-20T13:00:38;98981.53;;;3.21;64.38
18988;BME280;5494;51.796;10.952;2023-01-20T13:03:55;98979.75;;;3.25;64.99
18988;BME280;5494;51.796;10.952;2023-01-20T13:06:51;98991.66;;;3.29;65.04
18988;BME280;5494;51.796;10.952;2023-01-20T13:09:47;98989.69;;;3.00;66.56
18988;BME280;5494;51.796;10.952;2023-01-20T13:12:38;98990.94;;;2.79;67.46
18988;BME280;5494;51.796;10.952;2023-01-20T13:15:21;99003.06;;;2.71;67.54
18988;BME280;5494;51.796;10.952;2023-01-20T13:18:22;98994.75;;;2.60;67.97
18988;BME280;5494;51.796;10.952;2023-01-20T13:20:53;99004.94;;;2.63;70.94
18988;BME280;5494;51.796;10.952;2023-01-20T13:23:28;99000.69;;;2.62;70.51
18988;BME280;5494;51.796;10.952;2023-01-20T13:25:59;99010.03;;;2.66;70.79
18988;BME280;5494;51.796;10.952;2023-01-20T13:28:29;99007.44;;;2.66;70.10
18988;BME280;5494;51.796;10.952;2023-01-20T13:30:59;99001.97;;;2.84;70.91
18988;BME280;5494;51.796;10.952;2023-01-20T13:33:34;99000.03;;;2.97;69.58